sensor_id;sensor_type;location;lat;lon;timestamp;P1;durP1;ratioP1;P2;durP2;ratioP2
35257;SDS011;21385;50.878;8.050;2023-05-07T00:01:55;0.40;;;0.38;;
35257;SDS011;21385;50.878;8.050;2023-05-07T00:04:21;0.70;;;0.70;;
35257;SDS011;21385;50.878;8.050;2023-05-07T00:06:47;0.50;;;0.50;;
35257;SDS011;21385;50.878;8.050;2023-05-07T00:09:13;0.70;;;0.57;;
35257;SDS011;21385;50.878;8.050;2023-05-07T00:11:39;3.28;;;0.70;;
35257;SDS011;21385;50.878;8.050;2023-05-07T00:14:05;0.82;;;0.77;;
35257;SDS011;21385;50.878;8.050;2023-05-07T00:16:31;1.63;;;0.82;;
35257;SDS011;21385;50.878;8.050;2023-05-07T00:18:57;3.47;;;1.10;;
35257;SDS011;21385;50.878;8.050;2023-05-07T00:21:22;3.70;;;0.60;;
35257;SDS011;21385;50.878;8.050;2023-05-07T00:23:51;4.97;;;1.27;;
35257;SDS011;21385;50.878;8.050;2023-05-07T00:26:17;0.68;;;0.68;;
35257;SDS011;21385;50.878;8.050;2023-05-07T00:28:43;1.23;;;1.13;;
35257;SDS011;21385;50.878;8.050;2023-05-07T00:31:09;1.13;;;0.65;;
35257;SDS011;21385;50.878;8.050;2023-05-07T00:33:35;1.52;;;1.08;;
35257;SDS011;21385;50.878;8.050;2023-05-07T00:36:00;1.77;;;1.05;;
35257;SDS011;21385;50.878;8.050;2023-05-07T00:38:26;1.17;;;0.63;;
35257;SDS011;21385;50.878;8.050;2023-05-07T00:40:52;10.10;;;0.77;;
35257;SDS011;21385;50.878;8.050;2023-05-07T00:43:18;2.05;;;1.27;;
35257;SDS011;21385;50.878;8.050;2023-05-07T00:45:43;0.88;;;0.82;;
35257;SDS011;21385;50.878;8.050;2023-05-07T00:48:09;0.57;;;0.57;;
35257;SDS011;21385;50.878;8.050;2023-05-07T00:50:35;1.08;;;0.70;;
35257;SDS011;21385;50.878;8.050;2023-05-07T00:53:01;0.50;;;0.50;;
35257;SDS011;21385;50.878;8.050;2023-05-07T00:55:26;1.30;;;1.02;;
35257;SDS011;21385;50.878;8.050;2023-05-07T00:57:52;1.17;;;0.82;;
35257;SDS011;21385;50.878;8.050;2023-05-07T01:00:18;0.60;;;0.60;;
35257;SDS011;21385;50.878;8.050;2023-05-07T01:02:44;0.63;;;0.60;;
35257;SDS011;21385;50.878;8.050;2023-05-07T01:05:12;3.13;;;0.95;;
35257;SDS011;21385;50.878;8.050;2023-05-07T01:07:39;1.08;;;0.60;;
35257;SDS011;21385;50.878;8.050;2023-05-07T01:10:07;1.38;;;1.00;;
35257;SDS011;21385;50.878;8.050;2023-05-07T01:12:35;0.93;;;0.85;;
35257;SDS011;21385;50.878;8.050;2023-05-07T01:15:03;0.70;;;0.70;;
35257;SDS011;21385;50.878;8.050;2023-05-07T01:17:33;0.75;;;0.75;;
35257;SDS011;21385;50.878;8.050;2023-05-07T01:20:06;0.98;;;0.77;;
35257;SDS011;21385;50.878;8.050;2023-05-07T01:22:33;2.63;;;1.33;;
35257;SDS011;21385;50.878;8.050;2023-05-07T01:24:59;2.40;;;0.75;;
35257;SDS011;21385;50.878;8.050;2023-05-07T01:27:26;1.58;;;0.95;;
35257;SDS011;21385;50.878;8.050;2023-05-07T01:29:52;2.00;;;0.90;;
35257;SDS011;21385;50.878;8.050;2023-05-07T01:32:35;1.15;;;0.90;;
35257;SDS011;21385;50.878;8.050;2023-05-07T01:35:40;0.85;;;0.85;;
35257;SDS011;21385;50.878;8.050;2023-05-07T01:38:09;0.55;;;0.43;;
35257;SDS011;21385;50.878;8.050;2023-05-07T01:40:34;1.17;;;1.10;;
35257;SDS011;21385;50.878;8.050;2023-05-07T01:43:01;1.33;;;0.68;;
35257;SDS011;21385;50.878;8.050;2023-05-07T01:45:28;0.90;;;0.90;;
35257;SDS011;21385;50.878;8.050;2023-05-07T01:47:55;1.13;;;0.90;;
35257;SDS011;21385;50.878;8.050;2023-05-07T01:50:22;1.00;;;0.90;;
35257;SDS011;21385;50.878;8.050;2023-05-07T01:52:50;1.00;;;0.93;;
35257;SDS011;21385;50.878;8.050;2023-05-07T01:55:16;2.15;;;0.90;;
35257;SDS011;21385;50.878;8.050;2023-05-07T01:57:41;0.60;;;0.60;;
35257;SDS011;21385;50.878;8.050;2023-05-07T02:00:07;0.70;;;0.70;;
35257;SDS011;21385;50.878;8.050;2023-05-07T02:02:34;1.00;;;0.90;;
35257;SDS011;21385;50.878;8.050;2023-05-07T02:05:00;2.33;;;1.00;;
35257;SDS011;21385;50.878;8.050;2023-05-07T02:07:26;5.00;;;1.27;;
35257;SDS011;21385;50.878;8.050;2023-05-07T02:09:52;0.88;;;0.85;;
35257;SDS011;21385;50.878;8.050;2023-05-07T02:12:18;1.58;;;0.90;;
35257;SDS011;21385;50.878;8.050;2023-05-07T02:14:44;2.42;;;0.95;;
35257;SDS011;21385;50.878;8.050;2023-05-07T02:17:10;0.90;;;0.90;;
35257;SDS011;21385;50.878;8.050;2023-05-07T02:19:35;1.98;;;0.98;;
35257;SDS011;21385;50.878;8.050;2023-05-07T02:22:01;0.73;;;0.73;;
35257;SDS011;21385;50.878;8.050;2023-05-07T02:24:26;1.95;;;0.93;;
35257;SDS011;21385;50.878;8.050;2023-05-07T02:26:52;1.20;;;1.00;;
35257;SDS011;21385;50.878;8.050;2023-05-07T02:29:17;0.77;;;0.77;;
35257;SDS011;21385;50.878;8.050;2023-05-07T02:31:43;1.58;;;0.98;;
35257;SDS011;21385;50.878;8.050;2023-05-07T02:34:08;1.85;;;1.05;;
35257;SDS011;21385;50.878;8.050;2023-05-07T02:36:34;0.80;;;0.80;;
35257;SDS011;21385;50.878;8.050;2023-05-07T02:39:00;0.77;;;0.77;;
35257;SDS011;21385;50.878;8.050;2023-05-07T02:41:25;1.00;;;0.90;;
35257;SDS011;21385;50.878;8.050;2023-05-07T02:43:53;1.05;;;0.85;;
35257;SDS011;21385;50.878;8.050;2023-05-07T02:46:18;0.98;;;0.85;;
35257;SDS011;21385;50.878;8.050;2023-05-07T02:48:44;1.48;;;0.75;;
35257;SDS011;21385;50.878;8.050;2023-05-07T02:51:09;1.63;;;1.35;;
35257;SDS011;21385;50.878;8.050;2023-05-07T02:53:35;0.63;;;0.63;;
35257;SDS011;21385;50.878;8.050;2023-05-07T02:56:01;1.15;;;0.88;;
35257;SDS011;21385;50.878;8.050;2023-05-07T02:58:27;1.80;;;1.00;;
35257;SDS011;21385;50.878;8.050;2023-05-07T03:00:53;1.52;;;0.93;;
35257;SDS011;21385;50.878;8.050;2023-05-07T03:03:21;4.57;;;1.35;;
35257;SDS011;21385;50.878;8.050;2023-05-07T03:05:47;2.70;;;0.82;;
35257;SDS011;21385;50.878;8.050;2023-05-07T03:08:13;0.70;;;0.70;;
35257;SDS011;21385;50.878;8.050;2023-05-07T03:10:38;7.13;;;0.90;;
35257;SDS011;21385;50.878;8.050;2023-05-07T03:13:04;0.60;;;0.60;;
35257;SDS011;21385;50.878;8.050;2023-05-07T03:15:30;1.15;;;1.05;;
35257;SDS011;21385;50.878;8.050;2023-05-07T03:17:56;1.08;;;0.98;;
35257;SDS011;21385;50.878;8.050;2023-05-07T03:20:21;0.98;;;0.90;;
35257;SDS011;21385;50.878;8.050;2023-05-07T03:22:47;1.75;;;1.05;;
35257;SDS011;21385;50.878;8.050;2023-05-07T03:25:13;1.15;;;0.93;;
35257;SDS011;21385;50.878;8.050;2023-05-07T03:27:39;1.85;;;0.82;;
35257;SDS011;21385;50.878;8.050;2023-05-07T03:30:07;1.00;;;0.90;;
35257;SDS011;21385;50.878;8.050;2023-05-07T03:32:33;0.80;;;0.80;;
35257;SDS011;21385;50.878;8.050;2023-05-07T03:35:00;1.52;;;0.85;;
35257;SDS011;21385;50.878;8.050;2023-05-07T03:37:26;1.65;;;1.00;;
35257;SDS011;21385;50.878;8.050;2023-05-07T03:39:51;0.85;;;0.85;;
35257;SDS011;21385;50.878;8.050;2023-05-07T03:42:17;6.30;;;0.88;;
35257;SDS011;21385;50.878;8.050;2023-05-07T03:44:42;0.90;;;0.80;;
35257;SDS011;21385;50.878;8.050;2023-05-07T03:47:08;0.82;;;0.60;;
35257;SDS011;21385;50.878;8.050;2023-05-07T03:49:35;1.15;;;1.00;;
35257;SDS011;21385;50.878;8.050;2023-05-07T03:52:01;1.23;;;0.90;;
35257;SDS011;21385;50.878;8.050;2023-05-07T03:54:26;0.73;;;0.73;;
35257;SDS011;21385;50.878;8.050;2023-05-07T03:56:52;0.77;;;0.77;;
35257;SDS011;21385;50.878;8.050;2023-05-07T03:59:17;1.10;;;0.93;;
35257;SDS011;21385;50.878;8.050;2023-05-07T04:01:43;1.02;;;0.93;;
35257;SDS011;21385;50.878;8.050;2023-05-07T04:04:08;0.73;;;0.73;;
35257;SDS011;21385;50.878;8.050;2023-05-07T04:06:34;2.90;;;1.50;;
35257;SDS011;21385;50.878;8.050;2023-05-07T04:09:00;1.25;;;0.95;;
35257;SDS011;21385;50.878;8.050;2023-05-07T04:11:25;0.57;;;0.57;;
35257;SDS011;21385;50.878;8.050;2023-05-07T04:13:51;0.95;;;0.85;;
35257;SDS011;21385;50.878;8.050;2023-05-07T04:16:17;0.85;;;0.82;;
35257;SDS011;21385;50.878;8.050;2023-05-07T04:18:42;1.20;;;1.10;;
35257;SDS011;21385;50.878;8.050;2023-05-07T04:21:15;0.80;;;0.80;;
35257;SDS011;21385;50.878;8.050;2023-05-07T04:23:45;0.98;;;0.98;;
35257;SDS011;21385;50.878;8.050;2023-05-07T04:26:11;1.35;;;0.77;;
35257;SDS011;21385;50.878;8.050;2023-05-07T04:28:37;7.13;;;0.90;;
35257;SDS011;21385;50.878;8.050;2023-05-07T04:31:04;1.40;;;0.90;;
35257;SDS011;21385;50.878;8.050;2023-05-07T04:33:30;0.75;;;0.75;;
35257;SDS011;21385;50.878;8.050;2023-05-07T04:35:56;0.98;;;0.90;;
35257;SDS011;21385;50.878;8.050;2023-05-07T04:38:22;0.68;;;0.63;;
35257;SDS011;21385;50.878;8.050;2023-05-07T04:40:48;0.63;;;0.63;;
35257;SDS011;21385;50.878;8.050;2023-05-07T04:43:14;9.98;;;1.38;;
35257;SDS011;21385;50.878;8.050;2023-05-07T04:45:41;1.90;;;1.08;;
35257;SDS011;21385;50.878;8.050;2023-05-07T04:48:06;1.00;;;1.00;;
35257;SDS011;21385;50.878;8.050;2023-05-07T04:50:33;1.65;;;1.08;;
35257;SDS011;21385;50.878;8.050;2023-05-07T04:52:59;0.88;;;0.82;;
35257;SDS011;21385;50.878;8.050;2023-05-07T04:55:25;0.80;;;0.77;;
35257;SDS011;21385;50.878;8.050;2023-05-07T04:57:51;1.48;;;1.05;;
35257;SDS011;21385;50.878;8.050;2023-05-07T05:00:17;1.10;;;0.95;;
35257;SDS011;21385;50.878;8.050;2023-05-07T05:02:44;4.95;;;1.30;;
35257;SDS011;21385;50.878;8.050;2023-05-07T05:05:10;7.97;;;1.42;;
35257;SDS011;21385;50.878;8.050;2023-05-07T05:07:36;0.90;;;0.90;;
35257;SDS011;21385;50.878;8.050;2023-05-07T05:10:02;1.05;;;0.80;;
35257;SDS011;21385;50.878;8.050;2023-05-07T05:12:28;2.45;;;0.80;;
35257;SDS011;21385;50.878;8.050;2023-05-07T05:14:55;1.17;;;0.80;;
35257;SDS011;21385;50.878;8.050;2023-05-07T05:17:20;1.00;;;0.90;;
35257;SDS011;21385;50.878;8.050;2023-05-07T05:19:46;0.77;;;0.77;;
35257;SDS011;21385;50.878;8.050;2023-05-07T05:22:12;2.72;;;1.52;;
35257;SDS011;21385;50.878;8.050;2023-05-07T05:24:37;2.47;;;1.15;;
35257;SDS011;21385;50.878;8.050;2023-05-07T05:27:03;2.63;;;1.40;;
35257;SDS011;21385;50.878;8.050;2023-05-07T05:29:30;1.45;;;1.13;;
35257;SDS011;21385;50.878;8.050;2023-05-07T05:31:56;0.70;;;0.70;;
35257;SDS011;21385;50.878;8.050;2023-05-07T05:34:22;1.48;;;0.95;;
35257;SDS011;21385;50.878;8.050;2023-05-07T05:36:48;1.67;;;0.90;;
35257;SDS011;21385;50.878;8.050;2023-05-07T05:39:13;0.73;;;0.73;;
35257;SDS011;21385;50.878;8.050;2023-05-07T05:41:39;4.60;;;1.88;;
35257;SDS011;21385;50.878;8.050;2023-05-07T05:44:05;2.22;;;1.65;;
35257;SDS011;21385;50.878;8.050;2023-05-07T05:46:31;3.63;;;1.70;;
35257;SDS011;21385;50.878;8.050;2023-05-07T05:48:56;3.00;;;1.50;;
35257;SDS011;21385;50.878;8.050;2023-05-07T05:51:22;7.03;;;2.03;;
35257;SDS011;21385;50.878;8.050;2023-05-07T05:53:48;1.60;;;1.50;;
35257;SDS011;21385;50.878;8.050;2023-05-07T05:56:13;1.50;;;1.25;;
35257;SDS011;21385;50.878;8.050;2023-05-07T05:58:40;3.47;;;1.45;;
35257;SDS011;21385;50.878;8.050;2023-05-07T06:01:06;1.48;;;1.38;;
35257;SDS011;21385;50.878;8.050;2023-05-07T06:03:31;1.88;;;1.70;;
35257;SDS011;21385;50.878;8.050;2023-05-07T06:05:57;1.50;;;1.20;;
35257;SDS011;21385;50.878;8.050;2023-05-07T06:08:24;4.82;;;1.42;;
35257;SDS011;21385;50.878;8.050;2023-05-07T06:10:50;2.15;;;1.48;;
35257;SDS011;21385;50.878;8.050;2023-05-07T06:13:16;1.42;;;1.33;;
35257;SDS011;21385;50.878;8.050;2023-05-07T06:15:41;2.33;;;1.75;;
35257;SDS011;21385;50.878;8.050;2023-05-07T06:18:07;1.75;;;1.48;;
35257;SDS011;21385;50.878;8.050;2023-05-07T06:20:33;1.85;;;1.55;;
35257;SDS011;21385;50.878;8.050;2023-05-07T06:22:58;2.50;;;1.92;;
35257;SDS011;21385;50.878;8.050;2023-05-07T06:25:24;4.63;;;1.80;;
35257;SDS011;21385;50.878;8.050;2023-05-07T06:27:50;1.92;;;1.58;;
35257;SDS011;21385;50.878;8.050;2023-05-07T06:30:15;2.42;;;1.55;;
35257;SDS011;21385;50.878;8.050;2023-05-07T06:32:41;1.67;;;1.58;;
35257;SDS011;21385;50.878;8.050;2023-05-07T06:35:06;6.00;;;2.17;;
35257;SDS011;21385;50.878;8.050;2023-05-07T06:37:32;2.20;;;1.80;;
35257;SDS011;21385;50.878;8.050;2023-05-07T06:39:58;2.58;;;2.25;;
35257;SDS011;21385;50.878;8.050;2023-05-07T06:42:24;1.50;;;1.40;;
35257;SDS011;21385;50.878;8.050;2023-05-07T06:44:49;1.50;;;1.40;;
35257;SDS011;21385;50.878;8.050;2023-05-07T06:47:15;2.10;;;1.83;;
35257;SDS011;21385;50.878;8.050;2023-05-07T06:49:41;1.65;;;1.55;;
35257;SDS011;21385;50.878;8.050;2023-05-07T06:52:06;2.10;;;1.90;;
35257;SDS011;21385;50.878;8.050;2023-05-07T06:54:32;2.08;;;1.88;;
35257;SDS011;21385;50.878;8.050;2023-05-07T06:56:58;2.33;;;1.92;;
35257;SDS011;21385;50.878;8.050;2023-05-07T06:59:23;3.67;;;1.85;;
35257;SDS011;21385;50.878;8.050;2023-05-07T07:01:49;5.53;;;2.00;;
35257;SDS011;21385;50.878;8.050;2023-05-07T07:04:15;2.35;;;1.88;;
35257;SDS011;21385;50.878;8.050;2023-05-07T07:06:40;1.67;;;1.50;;
35257;SDS011;21385;50.878;8.050;2023-05-07T07:09:06;7.45;;;2.55;;
35257;SDS011;21385;50.878;8.050;2023-05-07T07:11:32;3.63;;;1.73;;
35257;SDS011;21385;50.878;8.050;2023-05-07T07:13:57;1.80;;;1.60;;
35257;SDS011;21385;50.878;8.050;2023-05-07T07:16:24;1.95;;;1.60;;
35257;SDS011;21385;50.878;8.050;2023-05-07T07:18:49;1.52;;;1.42;;
35257;SDS011;21385;50.878;8.050;2023-05-07T07:21:15;4.45;;;1.70;;
35257;SDS011;21385;50.878;8.050;2023-05-07T07:23:41;2.38;;;1.75;;
35257;SDS011;21385;50.878;8.050;2023-05-07T07:26:07;1.40;;;1.30;;
35257;SDS011;21385;50.878;8.050;2023-05-07T07:28:32;1.60;;;1.48;;
35257;SDS011;21385;50.878;8.050;2023-05-07T07:30:58;1.55;;;1.27;;
35257;SDS011;21385;50.878;8.050;2023-05-07T07:33:23;1.20;;;1.10;;
35257;SDS011;21385;50.878;8.050;2023-05-07T07:35:49;2.20;;;1.70;;
35257;SDS011;21385;50.878;8.050;2023-05-07T07:38:15;12.27;;;1.42;;
35257;SDS011;21385;50.878;8.050;2023-05-07T07:40:40;2.42;;;1.38;;
35257;SDS011;21385;50.878;8.050;2023-05-07T07:43:06;1.20;;;1.15;;
35257;SDS011;21385;50.878;8.050;2023-05-07T07:45:32;1.98;;;1.50;;
35257;SDS011;21385;50.878;8.050;2023-05-07T07:47:58;1.75;;;1.23;;
35257;SDS011;21385;50.878;8.050;2023-05-07T07:50:23;1.27;;;1.17;;
35257;SDS011;21385;50.878;8.050;2023-05-07T07:52:49;1.85;;;1.52;;
35257;SDS011;21385;50.878;8.050;2023-05-07T07:55:14;1.77;;;1.45;;
35257;SDS011;21385;50.878;8.050;2023-05-07T07:57:45;1.65;;;1.55;;
35257;SDS011;21385;50.878;8.050;2023-05-07T08:00:11;1.70;;;1.55;;
35257;SDS011;21385;50.878;8.050;2023-05-07T08:02:37;1.90;;;1.70;;
35257;SDS011;21385;50.878;8.050;2023-05-07T08:05:03;3.35;;;1.73;;
35257;SDS011;21385;50.878;8.050;2023-05-07T08:07:29;2.22;;;2.03;;
35257;SDS011;21385;50.878;8.050;2023-05-07T08:09:54;2.08;;;1.67;;
35257;SDS011;21385;50.878;8.050;2023-05-07T08:12:20;2.25;;;1.70;;
35257;SDS011;21385;50.878;8.050;2023-05-07T08:14:46;2.53;;;1.52;;
35257;SDS011;21385;50.878;8.050;2023-05-07T08:17:11;2.05;;;1.67;;
35257;SDS011;21385;50.878;8.050;2023-05-07T08:19:38;1.50;;;1.40;;
35257;SDS011;21385;50.878;8.050;2023-05-07T08:22:04;1.45;;;1.35;;
35257;SDS011;21385;50.878;8.050;2023-05-07T08:24:30;3.90;;;1.73;;
35257;SDS011;21385;50.878;8.050;2023-05-07T08:26:56;1.58;;;1.48;;
35257;SDS011;21385;50.878;8.050;2023-05-07T08:29:21;2.35;;;1.60;;
35257;SDS011;21385;50.878;8.050;2023-05-07T08:31:47;2.30;;;2.10;;
35257;SDS011;21385;50.878;8.050;2023-05-07T08:34:12;2.75;;;2.00;;
35257;SDS011;21385;50.878;8.050;2023-05-07T08:36:38;2.97;;;1.60;;
35257;SDS011;21385;50.878;8.050;2023-05-07T08:39:06;4.13;;;1.67;;
35257;SDS011;21385;50.878;8.050;2023-05-07T08:41:32;4.72;;;1.55;;
35257;SDS011;21385;50.878;8.050;2023-05-07T08:43:58;3.90;;;1.95;;
35257;SDS011;21385;50.878;8.050;2023-05-07T08:46:26;2.10;;;1.90;;
35257;SDS011;21385;50.878;8.050;2023-05-07T08:48:56;1.45;;;1.35;;
35257;SDS011;21385;50.878;8.050;2023-05-07T08:51:21;2.40;;;1.55;;
35257;SDS011;21385;50.878;8.050;2023-05-07T08:53:47;1.85;;;1.65;;
35257;SDS011;21385;50.878;8.050;2023-05-07T08:56:15;2.17;;;1.58;;
35257;SDS011;21385;50.878;8.050;2023-05-07T08:58:41;3.63;;;2.08;;
35257;SDS011;21385;50.878;8.050;2023-05-07T09:01:14;1.98;;;1.45;;
35257;SDS011;21385;50.878;8.050;2023-05-07T09:03:42;2.72;;;1.77;;
35257;SDS011;21385;50.878;8.050;2023-05-07T09:06:09;5.10;;;1.65;;
35257;SDS011;21385;50.878;8.050;2023-05-07T09:08:35;2.67;;;1.83;;
35257;SDS011;21385;50.878;8.050;2023-05-07T09:11:01;5.15;;;1.73;;
35257;SDS011;21385;50.878;8.050;2023-05-07T09:13:27;2.30;;;2.15;;
35257;SDS011;21385;50.878;8.050;2023-05-07T09:15:53;2.25;;;2.00;;
35257;SDS011;21385;50.878;8.050;2023-05-07T09:18:19;5.20;;;1.75;;
35257;SDS011;21385;50.878;8.050;2023-05-07T09:20:45;1.48;;;1.38;;
35257;SDS011;21385;50.878;8.050;2023-05-07T09:23:11;1.92;;;1.73;;
35257;SDS011;21385;50.878;8.050;2023-05-07T09:25:36;4.80;;;2.53;;
35257;SDS011;21385;50.878;8.050;2023-05-07T09:28:03;2.05;;;1.63;;
35257;SDS011;21385;50.878;8.050;2023-05-07T09:30:30;1.63;;;1.48;;
35257;SDS011;21385;50.878;8.050;2023-05-07T09:33:00;1.55;;;1.45;;
35257;SDS011;21385;50.878;8.050;2023-05-07T09:35:27;3.03;;;1.83;;
35257;SDS011;21385;50.878;8.050;2023-05-07T09:37:53;3.17;;;1.98;;
35257;SDS011;21385;50.878;8.050;2023-05-07T09:40:24;1.73;;;1.63;;
35257;SDS011;21385;50.878;8.050;2023-05-07T09:45:36;6.97;;;1.80;;
35257;SDS011;21385;50.878;8.050;2023-05-07T09:48:01;2.10;;;1.52;;
35257;SDS011;21385;50.878;8.050;2023-05-07T09:50:32;1.95;;;1.83;;
35257;SDS011;21385;50.878;8.050;2023-05-07T09:53:01;2.92;;;1.83;;
35257;SDS011;21385;50.878;8.050;2023-05-07T09:55:29;1.40;;;1.30;;
35257;SDS011;21385;50.878;8.050;2023-05-07T09:57:55;2.45;;;1.98;;
35257;SDS011;21385;50.878;8.050;2023-05-07T10:00:22;2.58;;;1.77;;
35257;SDS011;21385;50.878;8.050;2023-05-07T10:02:49;1.45;;;1.35;;
35257;SDS011;21385;50.878;8.050;2023-05-07T10:05:17;2.55;;;1.83;;
35257;SDS011;21385;50.878;8.050;2023-05-07T10:07:45;4.60;;;1.33;;
35257;SDS011;21385;50.878;8.050;2023-05-07T10:10:11;1.73;;;1.60;;
35257;SDS011;21385;50.878;8.050;2023-05-07T10:12:37;3.55;;;1.55;;
35257;SDS011;21385;50.878;8.050;2023-05-07T10:15:05;1.67;;;1.58;;
35257;SDS011;21385;50.878;8.050;2023-05-07T10:17:33;2.97;;;1.30;;
35257;SDS011;21385;50.878;8.050;2023-05-07T10:20:03;1.75;;;1.20;;
35257;SDS011;21385;50.878;8.050;2023-05-07T10:22:34;1.60;;;1.50;;
35257;SDS011;21385;50.878;8.050;2023-05-07T10:25:17;1.60;;;1.50;;
35257;SDS011;21385;50.878;8.050;2023-05-07T10:27:44;1.50;;;1.40;;
35257;SDS011;21385;50.878;8.050;2023-05-07T10:32:53;3.90;;;1.50;;
35257;SDS011;21385;50.878;8.050;2023-05-07T10:35:22;1.52;;;1.30;;
35257;SDS011;21385;50.878;8.050;2023-05-07T10:37:51;2.65;;;1.58;;
35257;SDS011;21385;50.878;8.050;2023-05-07T10:40:17;5.32;;;1.30;;
35257;SDS011;21385;50.878;8.050;2023-05-07T10:42:58;1.98;;;1.20;;
35257;SDS011;21385;50.878;8.050;2023-05-07T10:45:25;4.72;;;1.48;;
35257;SDS011;21385;50.878;8.050;2023-05-07T10:48:11;1.02;;;0.90;;
35257;SDS011;21385;50.878;8.050;2023-05-07T10:50:39;1.30;;;1.20;;
35257;SDS011;21385;50.878;8.050;2023-05-07T10:55:43;1.80;;;1.50;;
35257;SDS011;21385;50.878;8.050;2023-05-07T10:58:32;1.83;;;1.17;;
35257;SDS011;21385;50.878;8.050;2023-05-07T11:01:00;1.60;;;1.20;;
35257;SDS011;21385;50.878;8.050;2023-05-07T11:03:26;3.67;;;1.63;;
35257;SDS011;21385;50.878;8.050;2023-05-07T11:11:18;2.08;;;1.52;;
35257;SDS011;21385;50.878;8.050;2023-05-07T11:13:47;1.25;;;1.15;;
35257;SDS011;21385;50.878;8.050;2023-05-07T11:16:23;1.70;;;1.58;;
35257;SDS011;21385;50.878;8.050;2023-05-07T11:18:50;3.30;;;2.00;;
35257;SDS011;21385;50.878;8.050;2023-05-07T11:21:36;1.55;;;1.27;;
35257;SDS011;21385;50.878;8.050;2023-05-07T11:24:06;3.53;;;1.42;;
35257;SDS011;21385;50.878;8.050;2023-05-07T11:26:48;2.00;;;1.80;;
35257;SDS011;21385;50.878;8.050;2023-05-07T11:29:15;1.55;;;1.45;;
35257;SDS011;21385;50.878;8.050;2023-05-07T11:31:41;2.13;;;1.42;;
35257;SDS011;21385;50.878;8.050;2023-05-07T11:34:07;2.28;;;1.60;;
35257;SDS011;21385;50.878;8.050;2023-05-07T11:36:33;2.95;;;1.92;;
35257;SDS011;21385;50.878;8.050;2023-05-07T11:38:59;1.60;;;1.30;;
35257;SDS011;21385;50.878;8.050;2023-05-07T11:41:37;1.48;;;1.38;;
35257;SDS011;21385;50.878;8.050;2023-05-07T11:44:03;1.60;;;1.50;;
35257;SDS011;21385;50.878;8.050;2023-05-07T11:46:28;1.98;;;1.85;;
35257;SDS011;21385;50.878;8.050;2023-05-07T11:48:55;1.80;;;1.70;;
35257;SDS011;21385;50.878;8.050;2023-05-07T11:51:22;2.78;;;1.95;;
35257;SDS011;21385;50.878;8.050;2023-05-07T11:53:49;1.70;;;1.60;;
35257;SDS011;21385;50.878;8.050;2023-05-07T11:56:16;2.17;;;2.00;;
35257;SDS011;21385;50.878;8.050;2023-05-07T11:58:43;1.80;;;1.63;;
35257;SDS011;21385;50.878;8.050;2023-05-07T12:01:10;3.63;;;1.65;;
35257;SDS011;21385;50.878;8.050;2023-05-07T12:03:37;2.00;;;1.80;;
35257;SDS011;21385;50.878;8.050;2023-05-07T12:06:07;5.77;;;2.07;;
35257;SDS011;21385;50.878;8.050;2023-05-07T12:08:35;1.98;;;1.88;;
35257;SDS011;21385;50.878;8.050;2023-05-07T12:11:02;1.95;;;1.75;;
35257;SDS011;21385;50.878;8.050;2023-05-07T12:13:28;3.78;;;2.22;;
35257;SDS011;21385;50.878;8.050;2023-05-07T12:15:54;2.63;;;1.90;;
35257;SDS011;21385;50.878;8.050;2023-05-07T12:18:21;5.55;;;1.52;;
35257;SDS011;21385;50.878;8.050;2023-05-07T12:20:47;6.05;;;2.20;;
35257;SDS011;21385;50.878;8.050;2023-05-07T12:23:14;7.55;;;2.05;;
35257;SDS011;21385;50.878;8.050;2023-05-07T12:25:41;1.88;;;1.70;;
35257;SDS011;21385;50.878;8.050;2023-05-07T12:28:14;1.52;;;1.38;;
35257;SDS011;21385;50.878;8.050;2023-05-07T12:30:44;1.95;;;1.85;;
35257;SDS011;21385;50.878;8.050;2023-05-07T12:33:13;1.70;;;1.50;;
35257;SDS011;21385;50.878;8.050;2023-05-07T12:35:48;1.58;;;1.45;;
35257;SDS011;21385;50.878;8.050;2023-05-07T12:38:14;1.58;;;1.23;;
35257;SDS011;21385;50.878;8.050;2023-05-07T12:43:07;2.35;;;1.52;;
35257;SDS011;21385;50.878;8.050;2023-05-07T12:45:44;1.67;;;1.45;;
35257;SDS011;21385;50.878;8.050;2023-05-07T12:48:11;2.08;;;1.95;;
35257;SDS011;21385;50.878;8.050;2023-05-07T12:50:37;2.75;;;2.08;;
35257;SDS011;21385;50.878;8.050;2023-05-07T12:53:03;1.60;;;1.40;;
35257;SDS011;21385;50.878;8.050;2023-05-07T12:55:31;4.53;;;1.40;;
35257;SDS011;21385;50.878;8.050;2023-05-07T12:57:57;1.55;;;1.40;;
35257;SDS011;21385;50.878;8.050;2023-05-07T13:00:33;2.22;;;1.52;;
35257;SDS011;21385;50.878;8.050;2023-05-07T13:03:02;7.78;;;1.70;;
35257;SDS011;21385;50.878;8.050;2023-05-07T13:05:28;1.52;;;1.42;;
35257;SDS011;21385;50.878;8.050;2023-05-07T13:07:54;1.73;;;1.63;;
35257;SDS011;21385;50.878;8.050;2023-05-07T13:10:21;2.17;;;1.98;;
35257;SDS011;21385;50.878;8.050;2023-05-07T13:12:48;1.50;;;1.40;;
35257;SDS011;21385;50.878;8.050;2023-05-07T13:15:13;1.60;;;1.45;;
35257;SDS011;21385;50.878;8.050;2023-05-07T13:17:39;2.25;;;1.90;;
35257;SDS011;21385;50.878;8.050;2023-05-07T13:20:05;1.80;;;1.70;;
35257;SDS011;21385;50.878;8.050;2023-05-07T13:22:31;1.73;;;1.63;;
35257;SDS011;21385;50.878;8.050;2023-05-07T13:24:57;1.58;;;1.45;;
35257;SDS011;21385;50.878;8.050;2023-05-07T13:27:22;1.60;;;1.50;;
35257;SDS011;21385;50.878;8.050;2023-05-07T13:29:48;6.20;;;1.70;;
35257;SDS011;21385;50.878;8.050;2023-05-07T13:32:14;1.63;;;1.38;;
35257;SDS011;21385;50.878;8.050;2023-05-07T13:34:39;2.70;;;1.98;;
35257;SDS011;21385;50.878;8.050;2023-05-07T13:37:05;1.15;;;1.08;;
35257;SDS011;21385;50.878;8.050;2023-05-07T13:39:32;1.30;;;1.20;;
35257;SDS011;21385;50.878;8.050;2023-05-07T13:41:58;1.50;;;1.40;;
35257;SDS011;21385;50.878;8.050;2023-05-07T13:44:23;2.00;;;1.70;;
35257;SDS011;21385;50.878;8.050;2023-05-07T13:46:49;2.97;;;1.50;;
35257;SDS011;21385;50.878;8.050;2023-05-07T13:49:15;1.42;;;1.33;;
35257;SDS011;21385;50.878;8.050;2023-05-07T13:51:40;2.08;;;1.63;;
35257;SDS011;21385;50.878;8.050;2023-05-07T13:54:06;1.73;;;1.35;;
35257;SDS011;21385;50.878;8.050;2023-05-07T13:56:32;3.00;;;1.50;;
35257;SDS011;21385;50.878;8.050;2023-05-07T13:58:58;1.73;;;1.45;;
35257;SDS011;21385;50.878;8.050;2023-05-07T14:01:23;2.72;;;1.73;;
35257;SDS011;21385;50.878;8.050;2023-05-07T14:03:49;1.42;;;1.10;;
35257;SDS011;21385;50.878;8.050;2023-05-07T14:06:14;1.42;;;1.33;;
35257;SDS011;21385;50.878;8.050;2023-05-07T14:08:40;1.70;;;1.27;;
35257;SDS011;21385;50.878;8.050;2023-05-07T14:11:06;1.50;;;1.40;;
35257;SDS011;21385;50.878;8.050;2023-05-07T14:13:31;2.58;;;1.35;;
35257;SDS011;21385;50.878;8.050;2023-05-07T14:15:57;5.88;;;1.25;;
35257;SDS011;21385;50.878;8.050;2023-05-07T14:18:23;2.25;;;1.55;;
35257;SDS011;21385;50.878;8.050;2023-05-07T14:20:49;2.05;;;1.50;;
35257;SDS011;21385;50.878;8.050;2023-05-07T14:23:14;2.05;;;1.77;;
35257;SDS011;21385;50.878;8.050;2023-05-07T14:25:42;2.08;;;1.65;;
35257;SDS011;21385;50.878;8.050;2023-05-07T14:28:08;2.92;;;1.70;;
35257;SDS011;21385;50.878;8.050;2023-05-07T14:30:34;2.92;;;1.63;;
35257;SDS011;21385;50.878;8.050;2023-05-07T14:33:00;1.85;;;1.48;;
35257;SDS011;21385;50.878;8.050;2023-05-07T14:35:25;1.42;;;1.15;;
35257;SDS011;21385;50.878;8.050;2023-05-07T14:37:51;1.23;;;1.10;;
35257;SDS011;21385;50.878;8.050;2023-05-07T14:40:16;1.63;;;1.50;;
35257;SDS011;21385;50.878;8.050;2023-05-07T14:42:42;1.42;;;1.33;;
35257;SDS011;21385;50.878;8.050;2023-05-07T14:45:08;1.67;;;1.58;;
35257;SDS011;21385;50.878;8.050;2023-05-07T14:47:34;2.17;;;1.73;;
35257;SDS011;21385;50.878;8.050;2023-05-07T14:49:59;2.63;;;1.98;;
35257;SDS011;21385;50.878;8.050;2023-05-07T14:52:26;2.10;;;1.90;;
35257;SDS011;21385;50.878;8.050;2023-05-07T14:54:51;2.00;;;1.83;;
35257;SDS011;21385;50.878;8.050;2023-05-07T14:57:17;4.75;;;2.78;;
35257;SDS011;21385;50.878;8.050;2023-05-07T14:59:44;16.92;;;7.68;;
35257;SDS011;21385;50.878;8.050;2023-05-07T15:02:10;5.18;;;3.58;;